createdAt,value
2022-11-04T00:02:17.488Z,17.30
2022-11-04T00:04:46.601Z,10.95
2022-11-04T00:07:29.320Z,18.63
2022-11-04T00:09:58.228Z,14.32
2022-11-04T00:12:26.146Z,12.25
2022-11-04T00:15:15.848Z,19.67
2022-11-04T00:17:45.267Z,16.13
2022-11-04T00:20:31.243Z,18.83
2022-11-04T00:23:17.582Z,15.70
2022-11-04T00:26:00.341Z,15.77
2022-11-04T00:28:45.438Z,11.18
2022-11-04T00:31:31.474Z,10.90
2022-11-04T00:34:02.002Z,22.17
2022-11-04T00:36:30.956Z,14.88
2022-11-04T00:39:00.234Z,16.90
2022-11-04T00:41:30.424Z,16.35
2022-11-04T00:44:00.892Z,14.60
2022-11-04T00:46:31.507Z,17.42
2022-11-04T00:49:02.191Z,14.30
2022-11-04T00:51:31.156Z,18.85
2022-11-04T00:54:00.104Z,13.85
2022-11-04T00:56:30.103Z,14.70
2022-11-04T00:59:01.495Z,15.10
2022-11-04T01:01:30.675Z,12.40
2022-11-04T01:04:01.095Z,12.00
2022-11-04T01:06:29.988Z,10.50
2022-11-04T01:09:00.381Z,13.43
2022-11-04T01:11:30.901Z,11.77
2022-11-04T01:13:59.961Z,13.63
2022-11-04T01:16:29.793Z,13.18
2022-11-04T01:19:00.050Z,14.07
2022-11-04T01:21:31.283Z,15.45
2022-11-04T01:24:02.012Z,14.20
2022-11-04T01:26:31.770Z,10.90
2022-11-04T01:29:01.987Z,12.18
2022-11-04T01:31:32.523Z,14.52
2022-11-04T01:34:02.038Z,13.70
2022-11-04T01:36:32.380Z,18.02
2022-11-04T01:39:02.056Z,18.05
2022-11-04T01:41:33.370Z,17.23
2022-11-04T01:44:04.893Z,15.68
2022-11-04T01:46:40.109Z,15.82
2022-11-04T01:52:02.453Z,13.63
2022-11-04T01:54:32.294Z,17.38
2022-11-04T01:57:05.010Z,21.30
2022-11-04T01:59:38.642Z,20.17
2022-11-04T02:02:08.779Z,20.35
2022-11-04T02:04:38.527Z,30.73
2022-11-04T02:07:11.518Z,21.67
2022-11-04T02:09:41.551Z,19.15
2022-11-04T02:12:28.080Z,20.10
2022-11-04T02:14:58.774Z,20.45
2022-11-04T02:17:38.308Z,16.83
2022-11-04T02:20:22.575Z,15.38
2022-11-04T02:23:21.426Z,16.27
2022-11-04T02:26:31.977Z,22.70
2022-11-04T02:29:27.400Z,17.00
2022-11-04T02:32:07.094Z,19.33
2022-11-04T02:34:44.513Z,14.25
2022-11-04T02:37:20.547Z,16.17
2022-11-04T02:39:56.173Z,16.30
2022-11-04T02:42:31.458Z,15.35
2022-11-04T02:47:42.976Z,28.95
2022-11-04T02:50:16.023Z,21.05
2022-11-04T02:52:51.408Z,25.10
2022-11-04T02:55:25.285Z,34.28
2022-11-04T02:57:58.881Z,29.58
2022-11-04T03:00:30.798Z,21.63
2022-11-04T03:03:05.483Z,29.33
2022-11-04T03:05:37.536Z,25.83
2022-11-04T03:08:10.615Z,21.90
2022-11-04T03:10:43.915Z,20.58
2022-11-04T03:13:15.719Z,23.75
2022-11-04T03:15:51.461Z,20.02
2022-11-04T03:18:31.227Z,28.42
2022-11-04T03:21:04.129Z,19.35
2022-11-04T03:23:33.760Z,28.38
2022-11-04T03:26:10.318Z,20.58
2022-11-04T03:28:44.867Z,17.48
2022-11-04T03:31:24.555Z,16.90
2022-11-04T03:33:55.631Z,19.02
2022-11-04T03:36:25.253Z,16.48
2022-11-04T03:38:54.518Z,19.48
2022-11-04T03:41:30.926Z,10.23
2022-11-04T03:43:59.774Z,18.83
2022-11-04T03:46:30.444Z,14.18
2022-11-04T03:49:01.030Z,18.75
2022-11-04T03:51:29.983Z,20.38
2022-11-04T03:53:59.864Z,21.10
2022-11-04T03:56:52.113Z,16.35
2022-11-04T03:59:41.268Z,12.20
2022-11-04T04:02:18.278Z,18.40
2022-11-04T04:04:57.441Z,14.95
2022-11-04T04:07:32.973Z,14.32
2022-11-04T04:10:28.035Z,12.27
2022-11-04T04:13:01.233Z,13.97
2022-11-04T04:15:39.469Z,15.10
2022-11-04T04:18:13.935Z,13.63
2022-11-04T04:20:47.330Z,13.32
2022-11-04T04:23:37.059Z,11.38
2022-11-04T04:26:27.792Z,15.98
2022-11-04T04:28:58.528Z,16.88
2022-11-04T04:31:48.441Z,20.42
2022-11-04T04:34:21.357Z,20.95
2022-11-04T04:36:55.717Z,16.75
2022-11-04T04:39:46.496Z,19.83
2022-11-04T04:42:32.905Z,33.35
2022-11-04T04:45:07.609Z,28.13
2022-11-04T04:47:41.760Z,18.45
2022-11-04T04:50:14.294Z,25.73
2022-11-04T04:52:49.186Z,20.25
2022-11-04T04:55:19.124Z,19.73
2022-11-04T04:57:48.490Z,28.88
2022-11-04T05:00:20.157Z,26.10
2022-11-04T05:02:50.325Z,31.50
2022-11-04T05:05:20.951Z,34.38
2022-11-04T05:07:49.920Z,29.05
2022-11-04T05:10:19.568Z,29.98
2022-11-04T05:13:06.332Z,38.50
2022-11-04T05:15:36.051Z,26.45
2022-11-04T05:18:05.203Z,35.63
2022-11-04T05:20:35.575Z,25.05
2022-11-04T05:23:04.531Z,37.50
2022-11-04T05:25:33.449Z,24.02
2022-11-04T05:28:03.810Z,30.48
2022-11-04T05:30:32.918Z,27.00
2022-11-04T05:33:04.912Z,28.70
2022-11-04T05:35:36.008Z,27.02
2022-11-04T05:38:05.042Z,28.17
2022-11-04T05:40:33.991Z,50.95
2022-11-04T05:43:03.343Z,51.42
2022-11-04T05:45:32.513Z,39.63
2022-11-04T05:48:03.040Z,35.83
2022-11-04T05:50:34.244Z,41.30
2022-11-04T05:53:05.194Z,34.55
2022-11-04T05:55:34.137Z,39.75
2022-11-04T05:58:03.833Z,74.13
2022-11-04T06:00:32.780Z,35.10
2022-11-04T06:03:02.257Z,29.13
2022-11-04T06:05:32.235Z,28.00
2022-11-04T06:08:02.105Z,26.30
2022-11-04T06:10:32.602Z,24.27
2022-11-04T06:13:02.099Z,30.38
2022-11-04T06:15:31.050Z,26.00
2022-11-04T06:18:00.236Z,21.67
2022-11-04T06:20:29.792Z,18.95
2022-11-04T06:22:59.029Z,29.02
2022-11-04T06:25:28.794Z,23.73
2022-11-04T06:28:02.055Z,18.60
2022-11-04T06:30:30.983Z,19.60
2022-11-04T06:32:59.878Z,15.15
2022-11-04T06:35:30.035Z,19.40
2022-11-04T06:37:59.412Z,17.17
2022-11-04T06:40:28.356Z,21.35
2022-11-04T06:42:57.472Z,16.00
2022-11-04T06:45:37.012Z,16.90
2022-11-04T06:48:07.500Z,15.65
2022-11-04T06:50:36.421Z,17.10
2022-11-04T06:53:06.374Z,13.52
2022-11-04T06:55:35.491Z,18.48
2022-11-04T06:58:04.510Z,19.42
2022-11-04T07:15:35.918Z,8.63
2022-11-04T07:18:05.039Z,12.63
2022-11-04T07:20:34.080Z,27.30
2022-11-04T07:23:03.364Z,8.65
2022-11-04T07:25:32.335Z,11.52
2022-11-04T07:28:02.534Z,9.73
2022-11-04T07:30:31.592Z,14.18
2022-11-04T07:33:02.001Z,12.95
2022-11-04T07:35:31.012Z,13.15
2022-11-04T07:37:59.865Z,53.50
2022-11-04T07:40:29.597Z,12.35
2022-11-04T07:42:58.434Z,12.57
2022-11-04T07:45:37.976Z,8.35
2022-11-04T07:48:08.595Z,26.73
2022-11-04T07:50:41.038Z,10.45
2022-11-04T07:53:12.177Z,12.77
2022-11-04T07:55:43.581Z,11.82
2022-11-04T07:58:12.589Z,15.93
2022-11-04T08:00:41.658Z,9.35
2022-11-04T08:03:12.388Z,14.65
2022-11-04T08:05:41.477Z,13.35
2022-11-04T08:08:10.299Z,13.10
2022-11-04T08:10:39.138Z,16.00
2022-11-04T08:13:08.256Z,10.07
2022-11-04T08:15:37.546Z,8.68
2022-11-04T08:18:06.425Z,11.82
2022-11-04T08:20:36.658Z,12.27
2022-11-04T08:23:05.466Z,11.20
2022-11-04T08:25:34.337Z,10.55
2022-11-04T08:28:03.742Z,8.73
2022-11-04T08:30:32.530Z,13.27
2022-11-04T08:33:01.965Z,13.45
2022-11-04T08:35:31.357Z,10.25
2022-11-04T08:38:02.088Z,20.02
2022-11-04T08:40:30.926Z,12.85
2022-11-04T08:42:59.768Z,9.55
2022-11-04T08:45:33.430Z,15.27
2022-11-04T08:48:05.643Z,11.00
2022-11-04T08:50:34.768Z,10.57
2022-11-04T08:53:06.400Z,10.45
2022-11-04T08:55:35.917Z,10.95
2022-11-04T08:58:05.041Z,13.88
2022-11-04T09:00:34.456Z,10.85
2022-11-04T09:03:04.363Z,12.88
2022-11-04T09:05:34.158Z,7.97
2022-11-04T09:08:06.020Z,9.68
2022-11-04T09:10:34.905Z,12.18
2022-11-04T09:13:03.799Z,10.20
2022-11-04T09:15:32.699Z,18.40
2022-11-04T09:18:02.556Z,13.15
2022-11-04T09:20:32.179Z,9.98
2022-11-04T09:23:01.089Z,11.30
2022-11-04T09:25:33.062Z,7.15
2022-11-04T09:28:02.357Z,12.13
2022-11-04T09:30:31.232Z,10.90
2022-11-04T09:33:00.389Z,8.18
2022-11-04T09:35:29.920Z,11.60
2022-11-04T09:38:02.049Z,7.72
2022-11-04T09:40:36.720Z,9.50
2022-11-04T09:43:18.673Z,11.88
2022-11-04T09:45:47.726Z,10.98
2022-11-04T09:48:31.563Z,10.55
2022-11-04T09:51:03.864Z,11.70
2022-11-04T09:53:41.892Z,14.63
2022-11-04T09:56:18.220Z,8.77
2022-11-04T09:58:48.312Z,9.20
2022-11-04T10:01:29.047Z,8.23
2022-11-04T10:04:17.630Z,8.15
2022-11-04T10:07:06.712Z,7.82
2022-11-04T10:09:52.487Z,8.63
2022-11-04T10:12:43.876Z,7.68
2022-11-04T10:15:44.679Z,7.10
2022-11-04T10:18:27.872Z,19.63
2022-11-04T10:21:06.699Z,13.18
2022-11-04T10:23:42.893Z,12.32
2022-11-04T10:26:18.688Z,9.35
2022-11-04T10:28:55.741Z,7.45
2022-11-04T10:31:26.343Z,8.27
2022-11-04T10:33:59.638Z,8.25
2022-11-04T10:36:28.917Z,9.05
2022-11-04T10:38:59.600Z,7.55
2022-11-04T10:41:34.024Z,9.48
2022-11-04T10:44:07.577Z,8.50
2022-11-04T10:46:47.169Z,11.98
2022-11-04T10:50:00.064Z,6.25
2022-11-04T10:52:35.076Z,10.23
2022-11-04T10:55:03.964Z,6.78
2022-11-04T10:57:33.017Z,6.57
2022-11-04T11:00:05.550Z,5.85
2022-11-04T11:02:48.254Z,12.93
2022-11-04T11:05:25.031Z,7.32
2022-11-04T11:07:56.223Z,6.05
2022-11-04T11:10:27.792Z,8.40
2022-11-04T11:12:58.905Z,8.70
2022-11-04T11:15:32.837Z,11.75
2022-11-04T11:18:15.092Z,12.95
2022-11-04T11:20:49.177Z,5.25
2022-11-04T11:23:40.584Z,7.80
2022-11-04T11:26:11.351Z,7.30
2022-11-04T11:28:41.684Z,8.07
2022-11-04T11:31:23.356Z,5.65
2022-11-04T11:33:56.186Z,8.60
2022-11-04T11:36:27.451Z,8.50
2022-11-04T11:39:04.212Z,6.25
2022-11-04T11:41:39.666Z,10.40
2022-11-04T11:44:24.229Z,4.80
2022-11-04T11:46:59.536Z,7.95
2022-11-04T11:52:26.077Z,18.17
2022-11-04T11:54:59.162Z,9.07
2022-11-04T11:57:37.118Z,8.30
2022-11-04T12:03:07.813Z,5.82
2022-11-04T12:12:01.019Z,11.05
2022-11-04T12:14:48.676Z,5.35
2022-11-04T12:17:32.443Z,9.63
2022-11-04T12:20:18.922Z,5.82
2022-11-04T12:22:55.421Z,8.85
2022-11-04T12:25:31.198Z,7.78
2022-11-04T12:28:09.033Z,7.13
2022-11-04T12:30:48.803Z,14.05
2022-11-04T12:33:29.646Z,4.15
2022-11-04T12:36:09.733Z,7.63
2022-11-04T12:39:04.040Z,6.68
2022-11-04T12:42:06.881Z,12.40
2022-11-04T12:44:35.151Z,10.15
2022-11-04T12:47:19.972Z,7.95
2022-11-04T12:50:05.728Z,9.97
2022-11-04T12:55:29.980Z,6.22
2022-11-04T12:58:08.265Z,7.32
2022-11-04T13:00:43.015Z,12.95
2022-11-04T13:03:17.548Z,5.72
2022-11-04T13:05:51.408Z,6.03
2022-11-04T13:08:26.935Z,9.02
2022-11-04T13:11:02.271Z,10.55
2022-11-04T13:13:37.480Z,9.40
2022-11-04T13:16:11.844Z,7.57
2022-11-04T13:18:42.660Z,10.67
2022-11-04T13:21:14.901Z,7.00
2022-11-04T13:23:51.869Z,7.03
2022-11-04T13:26:20.748Z,6.82
2022-11-04T13:29:07.345Z,14.77
2022-11-04T13:31:48.828Z,7.43
2022-11-04T13:34:28.675Z,8.88
2022-11-04T13:54:59.968Z,12.55
2022-11-04T13:57:31.563Z,15.25
2022-11-04T14:00:23.755Z,7.25
2022-11-04T14:02:53.571Z,31.98
2022-11-04T14:06:06.217Z,9.77
2022-11-04T14:08:35.983Z,10.65
2022-11-04T14:11:11.839Z,12.65
2022-11-04T14:13:46.372Z,7.93
2022-11-04T14:16:43.278Z,9.95
2022-11-04T14:19:56.635Z,8.43
2022-11-04T14:22:38.862Z,16.25
2022-11-04T14:25:28.915Z,11.77
2022-11-04T14:28:02.129Z,11.80
2022-11-04T14:30:50.938Z,14.13
2022-11-04T14:33:30.373Z,9.57
2022-11-04T14:36:17.304Z,9.55
2022-11-04T14:38:53.348Z,10.38
2022-11-04T14:41:30.662Z,10.73
2022-11-04T14:44:04.132Z,9.32
2022-11-04T14:46:42.236Z,7.28
2022-11-04T14:49:38.328Z,5.85
2022-11-04T14:54:38.491Z,12.90
2022-11-04T14:57:16.655Z,8.32
2022-11-04T14:59:47.723Z,16.95
2022-11-04T15:02:20.886Z,7.07
2022-11-04T15:04:54.094Z,9.35
2022-11-04T15:07:34.056Z,12.80
2022-11-04T15:10:05.260Z,9.85
2022-11-04T15:12:52.086Z,8.20
2022-11-04T15:15:36.191Z,11.95
2022-11-04T15:18:08.980Z,20.02
2022-11-04T15:20:46.272Z,12.23
2022-11-04T15:23:18.983Z,13.93
2022-11-04T15:25:49.848Z,14.52
2022-11-04T15:28:22.375Z,12.93
2022-11-04T15:31:02.399Z,12.02
2022-11-04T15:33:33.966Z,13.80
2022-11-04T15:36:03.725Z,15.32
2022-11-04T15:38:33.599Z,11.05
2022-11-04T15:41:17.876Z,19.67
2022-11-04T15:43:47.444Z,13.63
2022-11-04T15:46:22.544Z,10.95
2022-11-04T15:49:06.712Z,9.20
2022-11-04T15:51:38.797Z,19.30
2022-11-04T15:54:18.722Z,17.27
2022-11-04T15:56:52.686Z,12.57
2022-11-04T15:59:24.575Z,18.42
2022-11-04T16:01:55.369Z,22.70
2022-11-04T16:04:27.455Z,18.42
2022-11-04T16:07:24.557Z,14.45
2022-11-04T16:09:55.232Z,12.82
2022-11-04T16:12:29.599Z,25.40
2022-11-04T16:14:59.906Z,35.47
2022-11-04T16:17:32.435Z,47.05
2022-11-04T16:20:04.157Z,34.20
2022-11-04T16:22:37.122Z,39.72
2022-11-04T16:25:10.264Z,27.27
2022-11-04T16:27:39.877Z,21.58
2022-11-04T16:30:18.108Z,16.92
2022-11-04T16:32:49.700Z,18.30
2022-11-04T16:35:22.400Z,29.83
2022-11-04T16:37:51.909Z,20.55
2022-11-04T16:40:21.931Z,14.82
2022-11-04T16:42:51.529Z,21.42
2022-11-04T16:45:27.525Z,17.15
2022-11-04T16:47:58.930Z,20.52
2022-11-04T16:50:28.328Z,29.23
2022-11-04T16:52:57.427Z,16.80
2022-11-04T16:55:27.308Z,13.23
2022-11-04T16:58:00.531Z,16.50
2022-11-04T17:00:32.938Z,16.55
2022-11-04T17:03:13.577Z,14.50
2022-11-04T17:05:42.415Z,23.83
2022-11-04T17:08:13.344Z,28.67
2022-11-04T17:10:46.428Z,37.75
2022-11-04T17:13:18.219Z,70.15
2022-11-04T17:15:47.250Z,95.63
2022-11-04T17:18:19.023Z,66.50
2022-11-04T17:20:50.955Z,40.40
2022-11-04T17:23:20.584Z,50.03
2022-11-04T17:25:50.128Z,19.55
2022-11-04T17:28:18.945Z,34.92
2022-11-04T17:30:47.784Z,30.60
2022-11-04T17:33:19.705Z,27.45
2022-11-04T17:35:51.356Z,25.80
2022-11-04T17:38:20.859Z,19.65
2022-11-04T17:41:07.502Z,26.52
2022-11-04T17:43:53.692Z,35.95
2022-11-04T17:46:39.048Z,40.10
2022-11-04T17:49:13.214Z,45.75
2022-11-04T17:51:43.778Z,27.98
2022-11-04T17:54:13.144Z,48.58
2022-11-04T17:56:42.370Z,57.47
2022-11-04T17:59:13.677Z,37.80
2022-11-04T18:01:43.914Z,46.88
2022-11-04T18:04:16.799Z,70.55
2022-11-04T18:06:45.883Z,42.13
2022-11-04T18:09:16.216Z,39.58
2022-11-04T18:12:04.508Z,200.30
2022-11-04T18:14:33.448Z,64.22
2022-11-04T18:17:03.264Z,49.20
2022-11-04T18:19:33.540Z,58.72
2022-11-04T18:22:02.367Z,53.78
2022-11-04T18:24:31.417Z,48.28
2022-11-04T18:27:00.851Z,51.17
2022-11-04T18:29:29.760Z,81.05
2022-11-04T18:31:58.691Z,58.80
2022-11-04T18:34:27.530Z,53.28
2022-11-04T18:37:00.856Z,47.90
2022-11-04T18:39:29.657Z,45.13
2022-11-04T18:41:58.513Z,65.43
2022-11-04T18:44:27.339Z,42.03
2022-11-04T18:46:56.206Z,38.58
2022-11-04T18:49:25.262Z,36.55
2022-11-04T18:51:54.366Z,37.92
2022-11-04T18:54:24.631Z,35.05
2022-11-04T18:56:53.426Z,31.40
2022-11-04T18:59:22.227Z,41.55
2022-11-04T19:01:52.476Z,38.20
2022-11-04T19:04:21.488Z,54.78
2022-11-04T19:06:50.424Z,33.55
2022-11-04T19:09:45.286Z,48.10
2022-11-04T19:12:27.265Z,37.15
2022-11-04T19:14:56.215Z,41.70
2022-11-04T19:17:25.282Z,40.20
2022-11-04T19:19:54.141Z,38.17
2022-11-04T19:22:22.999Z,38.70
2022-11-04T19:24:51.788Z,45.00
2022-11-04T19:27:24.884Z,42.20
2022-11-04T19:29:53.926Z,44.85
2022-11-04T19:32:22.820Z,52.75
2022-11-04T19:34:51.641Z,52.42
2022-11-04T19:37:20.556Z,63.85
2022-11-04T19:39:49.413Z,60.40
2022-11-04T19:42:35.868Z,51.30
2022-11-04T19:45:06.850Z,69.68
2022-11-04T19:47:35.751Z,77.75
2022-11-04T19:50:04.908Z,57.55
2022-11-04T19:52:33.717Z,55.60
2022-11-04T19:55:03.231Z,93.55
2022-11-04T19:57:32.437Z,77.30
2022-11-04T20:00:01.981Z,56.40
2022-11-04T20:02:42.079Z,59.28
2022-11-04T20:05:11.070Z,55.28
2022-11-04T20:07:39.900Z,60.25
2022-11-04T20:10:10.145Z,69.10
2022-11-04T20:12:56.716Z,60.10
2022-11-04T20:15:26.353Z,51.67
2022-11-04T20:17:56.636Z,56.28
2022-11-04T20:20:25.486Z,39.35
2022-11-04T20:22:54.502Z,66.18
2022-11-04T20:25:23.288Z,59.90
2022-11-04T20:27:52.133Z,64.35
2022-11-04T20:30:21.123Z,39.05
2022-11-04T20:32:50.005Z,43.20
2022-11-04T20:35:20.956Z,33.33
2022-11-04T20:37:50.350Z,40.22
2022-11-04T20:40:19.476Z,25.33
2022-11-04T20:42:48.777Z,37.83
2022-11-04T20:45:19.210Z,43.55
2022-11-04T20:47:48.670Z,59.08
2022-11-04T20:50:17.584Z,50.22
2022-11-04T20:52:47.779Z,36.95
2022-11-04T20:55:16.801Z,42.65
2022-11-04T20:57:45.611Z,52.25
2022-11-04T21:00:15.355Z,68.55
2022-11-04T21:02:44.307Z,60.30
2022-11-04T21:05:15.028Z,58.10
2022-11-04T21:07:43.874Z,64.88
2022-11-04T21:10:14.096Z,63.33
2022-11-04T21:12:43.060Z,72.60
2022-11-04T21:15:33.477Z,67.85
2022-11-04T21:18:02.366Z,59.80
2022-11-04T21:20:31.252Z,49.47
2022-11-04T21:23:00.133Z,53.90
2022-11-04T21:25:31.100Z,57.25
2022-11-04T21:28:00.170Z,49.58
2022-11-04T21:30:33.061Z,53.42
2022-11-04T21:33:03.295Z,50.08
2022-11-04T21:35:34.890Z,48.85
2022-11-04T21:38:04.835Z,55.05
2022-11-04T21:40:35.383Z,52.67
2022-11-04T21:43:04.351Z,48.33
2022-11-04T21:45:34.906Z,43.03
2022-11-04T21:48:04.337Z,46.78
2022-11-04T21:50:33.256Z,47.75
2022-11-04T21:53:02.110Z,41.90
2022-11-04T21:55:30.951Z,62.00
2022-11-04T21:58:02.122Z,49.08
2022-11-04T22:00:30.922Z,41.75
2022-11-04T22:02:59.919Z,44.03
2022-11-04T22:05:29.489Z,33.97
2022-11-04T22:08:15.817Z,43.05
2022-11-04T22:10:50.741Z,57.33
2022-11-04T22:13:22.551Z,41.85
2022-11-04T22:16:00.830Z,35.70
2022-11-04T22:18:31.637Z,39.90
2022-11-04T22:21:04.119Z,30.13
2022-11-04T22:23:35.053Z,36.10
2022-11-04T22:26:05.700Z,32.20
2022-11-04T22:28:35.978Z,28.92
2022-11-04T22:31:09.097Z,26.20
2022-11-04T22:33:38.850Z,31.15
2022-11-04T22:36:08.541Z,33.42
2022-11-04T22:38:38.597Z,38.08
2022-11-04T22:41:09.827Z,44.90
2022-11-04T22:43:40.202Z,32.63
2022-11-04T22:46:12.791Z,42.50
2022-11-04T22:48:41.960Z,27.80
2022-11-04T22:51:11.195Z,33.90
2022-11-04T22:53:40.629Z,27.63
2022-11-04T22:56:12.346Z,45.97
2022-11-04T22:58:42.627Z,43.45
2022-11-04T23:01:13.881Z,31.95
2022-11-04T23:03:43.137Z,28.92
2022-11-04T23:06:12.160Z,34.28
2022-11-04T23:08:42.388Z,43.22
2022-11-04T23:11:34.255Z,45.33
2022-11-04T23:14:23.050Z,46.00
2022-11-04T23:17:10.029Z,42.53
2022-11-04T23:19:39.442Z,30.25
2022-11-04T23:22:26.352Z,27.67
2022-11-04T23:25:09.742Z,30.02
2022-11-04T23:27:59.017Z,30.02
2022-11-04T23:30:32.104Z,40.13
2022-11-04T23:33:03.227Z,36.58
2022-11-04T23:35:51.316Z,34.13
2022-11-04T23:38:20.911Z,28.00
2022-11-04T23:41:05.191Z,28.40
2022-11-04T23:43:34.196Z,31.33
2022-11-04T23:46:21.775Z,30.40
2022-11-04T23:49:08.325Z,25.95
2022-11-04T23:51:54.446Z,38.10
2022-11-04T23:54:40.892Z,38.90
2022-11-04T23:57:31.402Z,23.42
